sensor_id;sensor_type;location;lat;lon;timestamp;temperature;humidity
75170;SHT31;63749;49.186;9.222;2023-01-30T00:02:06;-0.26;83.59
75170;SHT31;63749;49.186;9.222;2023-01-30T00:04:32;-0.36;83.81
75170;SHT31;63749;49.186;9.222;2023-01-30T00:06:57;-0.37;83.56
75170;SHT31;63749;49.186;9.222;2023-01-30T00:09:22;-0.34;83.65
75170;SHT31;63749;49.186;9.222;2023-01-30T00:11:48;-0.26;83.30
75170;SHT31;63749;49.186;9.222;2023-01-30T00:14:13;-0.34;83.54
75170;SHT31;63749;49.186;9.222;2023-01-30T00:16:39;-0.36;83.36
75170;SHT31;63749;49.186;9.222;2023-01-30T00:19:06;-0.32;83.59
75170;SHT31;63749;49.186;9.222;2023-01-30T00:21:32;-0.26;83.25
75170;SHT31;63749;49.186;9.222;2023-01-30T00:23:57;-0.36;83.35
75170;SHT31;63749;49.186;9.222;2023-01-30T00:26:25;-0.48;84.18
75170;SHT31;63749;49.186;9.222;2023-01-30T00:28:50;-0.49;84.21
75170;SHT31;63749;49.186;9.222;2023-01-30T00:31:15;-0.53;84.44
75170;SHT31;63749;49.186;9.222;2023-01-30T00:33:41;-0.57;84.76
75170;SHT31;63749;49.186;9.222;2023-01-30T00:36:08;-0.49;84.48
75170;SHT31;63749;49.186;9.222;2023-01-30T00:38:33;-0.52;84.46
75170;SHT31;63749;49.186;9.222;2023-01-30T00:40:59;-0.67;84.76
75170;SHT31;63749;49.186;9.222;2023-01-30T00:43:25;-0.73;85.01
75170;SHT31;63749;49.186;9.222;2023-01-30T00:46:13;-0.69;85.02
75170;SHT31;63749;49.186;9.222;2023-01-30T00:49:14;-0.54;84.57
75170;SHT31;63749;49.186;9.222;2023-01-30T00:51:40;-0.50;84.46
75170;SHT31;63749;49.186;9.222;2023-01-30T00:54:06;-0.53;84.52
75170;SHT31;63749;49.186;9.222;2023-01-30T00:56:32;-0.63;85.02
75170;SHT31;63749;49.186;9.222;2023-01-30T00:58:57;-0.56;85.08
75170;SHT31;63749;49.186;9.222;2023-01-30T01:01:23;-0.52;84.94
75170;SHT31;63749;49.186;9.222;2023-01-30T01:03:48;-0.53;85.02
75170;SHT31;63749;49.186;9.222;2023-01-30T01:06:14;-0.59;85.12
75170;SHT31;63749;49.186;9.222;2023-01-30T01:08:39;-0.63;85.38
75170;SHT31;63749;49.186;9.222;2023-01-30T01:11:05;-0.52;85.21
75170;SHT31;63749;49.186;9.222;2023-01-30T01:13:30;-0.42;84.51
75170;SHT31;63749;49.186;9.222;2023-01-30T01:15:56;-0.32;84.34
75170;SHT31;63749;49.186;9.222;2023-01-30T01:18:21;-0.23;83.87
75170;SHT31;63749;49.186;9.222;2023-01-30T01:20:46;-0.08;83.51
75170;SHT31;63749;49.186;9.222;2023-01-30T01:23:13;0.02;83.12
75170;SHT31;63749;49.186;9.222;2023-01-30T01:25:40;-0.01;83.22
75170;SHT31;63749;49.186;9.222;2023-01-30T01:28:05;-0.01;83.29
75170;SHT31;63749;49.186;9.222;2023-01-30T01:30:31;0.05;82.99
75170;SHT31;63749;49.186;9.222;2023-01-30T01:32:56;0.16;82.72
75170;SHT31;63749;49.186;9.222;2023-01-30T01:35:21;0.25;82.43
75170;SHT31;63749;49.186;9.222;2023-01-30T01:37:47;0.25;82.40
75170;SHT31;63749;49.186;9.222;2023-01-30T01:40:17;0.26;82.12
75170;SHT31;63749;49.186;9.222;2023-01-30T01:43:14;0.26;82.22
75170;SHT31;63749;49.186;9.222;2023-01-30T01:45:39;0.25;82.08
75170;SHT31;63749;49.186;9.222;2023-01-30T01:48:11;0.28;81.59
75170;SHT31;63749;49.186;9.222;2023-01-30T01:51:01;0.36;81.46
75170;SHT31;63749;49.186;9.222;2023-01-30T01:53:33;0.38;81.71
75170;SHT31;63749;49.186;9.222;2023-01-30T01:56:01;0.33;81.66
75170;SHT31;63749;49.186;9.222;2023-01-30T01:58:32;0.39;81.47
75170;SHT31;63749;49.186;9.222;2023-01-30T02:01:00;0.56;80.73
75170;SHT31;63749;49.186;9.222;2023-01-30T02:03:28;0.61;80.51
75170;SHT31;63749;49.186;9.222;2023-01-30T02:05:56;0.64;80.51
75170;SHT31;63749;49.186;9.222;2023-01-30T02:08:27;0.68;80.05
75170;SHT31;63749;49.186;9.222;2023-01-30T02:13:47;0.66;80.17
75170;SHT31;63749;49.186;9.222;2023-01-30T02:16:14;0.71;80.20
75170;SHT31;63749;49.186;9.222;2023-01-30T02:18:41;0.74;79.97
75170;SHT31;63749;49.186;9.222;2023-01-30T02:38:03;0.88;78.93
75170;SHT31;63749;49.186;9.222;2023-01-30T02:46:03;0.98;78.78
75170;SHT31;63749;49.186;9.222;2023-01-30T02:48:42;0.94;78.81
75170;SHT31;63749;49.186;9.222;2023-01-30T02:51:18;1.07;77.91
75170;SHT31;63749;49.186;9.222;2023-01-30T02:53:46;1.07;78.04
75170;SHT31;63749;49.186;9.222;2023-01-30T02:56:13;1.04;77.92
75170;SHT31;63749;49.186;9.222;2023-01-30T02:58:47;0.97;78.09
75170;SHT31;63749;49.186;9.222;2023-01-30T03:07:11;1.04;77.50
75170;SHT31;63749;49.186;9.222;2023-01-30T03:09:48;1.21;76.60
75170;SHT31;63749;49.186;9.222;2023-01-30T03:15:01;1.17;76.52
75170;SHT31;63749;49.186;9.222;2023-01-30T03:17:28;1.28;75.95
75170;SHT31;63749;49.186;9.222;2023-01-30T03:19:54;1.31;75.74
75170;SHT31;63749;49.186;9.222;2023-01-30T03:22:20;1.28;76.23
75170;SHT31;63749;49.186;9.222;2023-01-30T03:24:46;1.25;76.06
75170;SHT31;63749;49.186;9.222;2023-01-30T03:27:13;1.27;76.11
75170;SHT31;63749;49.186;9.222;2023-01-30T03:29:39;1.32;75.92
75170;SHT31;63749;49.186;9.222;2023-01-30T03:32:06;1.34;75.75
75170;SHT31;63749;49.186;9.222;2023-01-30T03:34:40;1.39;75.93
75170;SHT31;63749;49.186;9.222;2023-01-30T03:37:06;1.43;75.71
75170;SHT31;63749;49.186;9.222;2023-01-30T03:39:31;1.39;75.75
75170;SHT31;63749;49.186;9.222;2023-01-30T03:41:57;1.31;76.54
75170;SHT31;63749;49.186;9.222;2023-01-30T03:44:22;1.38;76.33
75170;SHT31;63749;49.186;9.222;2023-01-30T03:46:47;1.49;75.88
75170;SHT31;63749;49.186;9.222;2023-01-30T03:49:13;1.50;75.42
75170;SHT31;63749;49.186;9.222;2023-01-30T03:51:38;1.45;76.06
75170;SHT31;63749;49.186;9.222;2023-01-30T03:54:04;1.36;76.60
75170;SHT31;63749;49.186;9.222;2023-01-30T03:56:30;1.36;76.43
75170;SHT31;63749;49.186;9.222;2023-01-30T03:58:55;1.36;76.60
75170;SHT31;63749;49.186;9.222;2023-01-30T04:01:22;1.39;76.44
75170;SHT31;63749;49.186;9.222;2023-01-30T04:03:47;1.38;76.72
75170;SHT31;63749;49.186;9.222;2023-01-30T04:06:13;1.29;77.20
75170;SHT31;63749;49.186;9.222;2023-01-30T04:08:38;1.24;78.29
75170;SHT31;63749;49.186;9.222;2023-01-30T04:11:05;1.15;79.03
75170;SHT31;63749;49.186;9.222;2023-01-30T04:13:30;1.17;79.27
75170;SHT31;63749;49.186;9.222;2023-01-30T04:16:17;1.18;79.13
75170;SHT31;63749;49.186;9.222;2023-01-30T04:18:43;1.18;78.94
75170;SHT31;63749;49.186;9.222;2023-01-30T04:21:08;1.15;79.11
75170;SHT31;63749;49.186;9.222;2023-01-30T04:23:34;1.02;79.32
75170;SHT31;63749;49.186;9.222;2023-01-30T04:25:59;1.04;80.19
75170;SHT31;63749;49.186;9.222;2023-01-30T04:28:24;1.07;79.74
75170;SHT31;63749;49.186;9.222;2023-01-30T04:30:51;1.01;80.62
75170;SHT31;63749;49.186;9.222;2023-01-30T04:33:17;1.07;80.59
75170;SHT31;63749;49.186;9.222;2023-01-30T04:35:53;0.94;81.68
75170;SHT31;63749;49.186;9.222;2023-01-30T04:38:20;0.88;81.58
75170;SHT31;63749;49.186;9.222;2023-01-30T04:40:48;0.87;81.73
75170;SHT31;63749;49.186;9.222;2023-01-30T04:43:13;0.87;81.94
75170;SHT31;63749;49.186;9.222;2023-01-30T04:45:45;0.84;81.93
75170;SHT31;63749;49.186;9.222;2023-01-30T04:48:19;0.81;82.35
75170;SHT31;63749;49.186;9.222;2023-01-30T04:50:52;0.87;82.04
75170;SHT31;63749;49.186;9.222;2023-01-30T04:53:18;0.85;82.71
75170;SHT31;63749;49.186;9.222;2023-01-30T04:55:44;0.74;83.66
75170;SHT31;63749;49.186;9.222;2023-01-30T04:58:09;0.66;84.07
75170;SHT31;63749;49.186;9.222;2023-01-30T05:00:35;0.70;83.98
75170;SHT31;63749;49.186;9.222;2023-01-30T05:03:00;0.71;84.16
75170;SHT31;63749;49.186;9.222;2023-01-30T05:05:26;0.68;84.50
75170;SHT31;63749;49.186;9.222;2023-01-30T05:07:52;0.59;84.34
75170;SHT31;63749;49.186;9.222;2023-01-30T05:10:18;0.53;84.82
75170;SHT31;63749;49.186;9.222;2023-01-30T05:12:44;0.50;85.65
75170;SHT31;63749;49.186;9.222;2023-01-30T05:15:10;0.46;85.96
75170;SHT31;63749;49.186;9.222;2023-01-30T05:18:27;0.56;85.65
75170;SHT31;63749;49.186;9.222;2023-01-30T05:20:52;0.52;85.42
75170;SHT31;63749;49.186;9.222;2023-01-30T05:23:18;0.42;86.67
75170;SHT31;63749;49.186;9.222;2023-01-30T05:25:43;0.40;87.08
75170;SHT31;63749;49.186;9.222;2023-01-30T05:28:08;0.22;87.72
75170;SHT31;63749;49.186;9.222;2023-01-30T05:30:34;0.18;88.13
75170;SHT31;63749;49.186;9.222;2023-01-30T05:32:59;0.15;88.70
75170;SHT31;63749;49.186;9.222;2023-01-30T05:35:24;0.23;87.81
75170;SHT31;63749;49.186;9.222;2023-01-30T05:37:50;0.18;88.17
75170;SHT31;63749;49.186;9.222;2023-01-30T05:40:16;0.18;88.03
75170;SHT31;63749;49.186;9.222;2023-01-30T05:42:41;0.18;88.11
75170;SHT31;63749;49.186;9.222;2023-01-30T05:45:07;0.26;87.25
75170;SHT31;63749;49.186;9.222;2023-01-30T05:47:33;0.22;87.48
75170;SHT31;63749;49.186;9.222;2023-01-30T05:49:58;0.28;87.60
75170;SHT31;63749;49.186;9.222;2023-01-30T05:52:23;0.30;87.67
75170;SHT31;63749;49.186;9.222;2023-01-30T05:54:52;0.32;87.92
75170;SHT31;63749;49.186;9.222;2023-01-30T05:57:18;0.40;87.41
75170;SHT31;63749;49.186;9.222;2023-01-30T05:59:43;0.59;86.87
75170;SHT31;63749;49.186;9.222;2023-01-30T06:02:09;0.49;86.64
75170;SHT31;63749;49.186;9.222;2023-01-30T06:04:34;0.50;86.31
75170;SHT31;63749;49.186;9.222;2023-01-30T06:06:59;0.68;85.69
75170;SHT31;63749;49.186;9.222;2023-01-30T06:09:25;0.68;85.92
75170;SHT31;63749;49.186;9.222;2023-01-30T06:11:50;0.67;86.24
75170;SHT31;63749;49.186;9.222;2023-01-30T06:14:16;0.73;86.16
75170;SHT31;63749;49.186;9.222;2023-01-30T06:16:42;0.78;85.61
75170;SHT31;63749;49.186;9.222;2023-01-30T06:19:07;0.74;85.87
75170;SHT31;63749;49.186;9.222;2023-01-30T06:21:33;0.81;85.78
75170;SHT31;63749;49.186;9.222;2023-01-30T06:23:58;0.95;84.79
75170;SHT31;63749;49.186;9.222;2023-01-30T06:26:23;1.12;82.61
75170;SHT31;63749;49.186;9.222;2023-01-30T06:28:49;1.15;83.79
75170;SHT31;63749;49.186;9.222;2023-01-30T06:31:14;1.24;81.47
75170;SHT31;63749;49.186;9.222;2023-01-30T06:33:40;1.29;81.20
75170;SHT31;63749;49.186;9.222;2023-01-30T06:36:08;1.34;81.22
75170;SHT31;63749;49.186;9.222;2023-01-30T06:38:33;1.27;81.97
75170;SHT31;63749;49.186;9.222;2023-01-30T06:40:59;1.27;81.77
75170;SHT31;63749;49.186;9.222;2023-01-30T06:43:24;1.32;81.75
75170;SHT31;63749;49.186;9.222;2023-01-30T06:45:50;1.32;81.37
75170;SHT31;63749;49.186;9.222;2023-01-30T06:48:15;1.34;82.20
75170;SHT31;63749;49.186;9.222;2023-01-30T06:50:40;1.31;81.82
75170;SHT31;63749;49.186;9.222;2023-01-30T06:53:07;1.25;81.97
75170;SHT31;63749;49.186;9.222;2023-01-30T06:55:34;1.35;81.75
75170;SHT31;63749;49.186;9.222;2023-01-30T06:58:03;1.25;82.25
75170;SHT31;63749;49.186;9.222;2023-01-30T07:00:29;1.29;82.04
75170;SHT31;63749;49.186;9.222;2023-01-30T07:02:54;1.38;81.95
75170;SHT31;63749;49.186;9.222;2023-01-30T07:05:20;1.32;82.48
75170;SHT31;63749;49.186;9.222;2023-01-30T07:07:46;1.28;82.32
75170;SHT31;63749;49.186;9.222;2023-01-30T07:10:11;1.27;82.73
75170;SHT31;63749;49.186;9.222;2023-01-30T07:12:37;1.35;82.20
75170;SHT31;63749;49.186;9.222;2023-01-30T07:15:03;1.38;81.95
75170;SHT31;63749;49.186;9.222;2023-01-30T07:17:29;1.35;82.01
75170;SHT31;63749;49.186;9.222;2023-01-30T07:19:54;1.39;81.34
75170;SHT31;63749;49.186;9.222;2023-01-30T07:22:20;1.38;81.57
75170;SHT31;63749;49.186;9.222;2023-01-30T07:24:45;1.35;81.49
75170;SHT31;63749;49.186;9.222;2023-01-30T07:27:11;1.40;81.74
75170;SHT31;63749;49.186;9.222;2023-01-30T07:29:38;1.45;81.61
75170;SHT31;63749;49.186;9.222;2023-01-30T07:32:04;1.46;81.44
75170;SHT31;63749;49.186;9.222;2023-01-30T07:34:30;1.46;81.71
75170;SHT31;63749;49.186;9.222;2023-01-30T07:36:55;1.45;81.92
75170;SHT31;63749;49.186;9.222;2023-01-30T07:39:21;1.34;83.04
75170;SHT31;63749;49.186;9.222;2023-01-30T07:41:46;1.38;82.26
75170;SHT31;63749;49.186;9.222;2023-01-30T07:44:12;1.39;82.46
75170;SHT31;63749;49.186;9.222;2023-01-30T07:46:38;1.46;83.36
75170;SHT31;63749;49.186;9.222;2023-01-30T07:49:05;1.49;82.31
75170;SHT31;63749;49.186;9.222;2023-01-30T07:51:31;1.50;82.64
75170;SHT31;63749;49.186;9.222;2023-01-30T07:53:56;1.57;82.34
75170;SHT31;63749;49.186;9.222;2023-01-30T07:56:22;1.73;83.92
75170;SHT31;63749;49.186;9.222;2023-01-30T07:58:48;1.79;82.14
75170;SHT31;63749;49.186;9.222;2023-01-30T08:01:14;1.93;81.31
75170;SHT31;63749;49.186;9.222;2023-01-30T08:03:40;2.13;82.99
75170;SHT31;63749;49.186;9.222;2023-01-30T08:06:06;2.08;80.84
75170;SHT31;63749;49.186;9.222;2023-01-30T08:08:32;2.28;80.22
75170;SHT31;63749;49.186;9.222;2023-01-30T08:10:57;2.27;80.65
75170;SHT31;63749;49.186;9.222;2023-01-30T08:13:22;2.27;80.78
75170;SHT31;63749;49.186;9.222;2023-01-30T08:15:48;2.31;80.74
75170;SHT31;63749;49.186;9.222;2023-01-30T08:18:14;2.48;83.02
75170;SHT31;63749;49.186;9.222;2023-01-30T08:20:39;2.31;80.45
75170;SHT31;63749;49.186;9.222;2023-01-30T08:23:06;2.32;80.60
75170;SHT31;63749;49.186;9.222;2023-01-30T08:25:32;2.32;80.73
75170;SHT31;63749;49.186;9.222;2023-01-30T08:28:00;2.28;80.54
75170;SHT31;63749;49.186;9.222;2023-01-30T08:30:26;2.21;80.79
75170;SHT31;63749;49.186;9.222;2023-01-30T08:32:51;2.22;80.80
75170;SHT31;63749;49.186;9.222;2023-01-30T08:35:17;2.24;80.79
75170;SHT31;63749;49.186;9.222;2023-01-30T08:37:42;2.31;80.75
75170;SHT31;63749;49.186;9.222;2023-01-30T08:40:09;2.28;80.70
75170;SHT31;63749;49.186;9.222;2023-01-30T08:42:34;2.32;80.58
75170;SHT31;63749;49.186;9.222;2023-01-30T08:45:00;2.32;80.56
75170;SHT31;63749;49.186;9.222;2023-01-30T08:47:25;2.34;80.58
75170;SHT31;63749;49.186;9.222;2023-01-30T08:49:50;2.29;80.96
75170;SHT31;63749;49.186;9.222;2023-01-30T08:52:17;2.29;81.17
75170;SHT31;63749;49.186;9.222;2023-01-30T08:54:42;2.39;81.22
75170;SHT31;63749;49.186;9.222;2023-01-30T08:57:08;2.39;81.03
75170;SHT31;63749;49.186;9.222;2023-01-30T08:59:33;2.45;80.87
75170;SHT31;63749;49.186;9.222;2023-01-30T09:01:58;2.50;80.77
75170;SHT31;63749;49.186;9.222;2023-01-30T09:04:24;2.56;80.47
75170;SHT31;63749;49.186;9.222;2023-01-30T09:06:50;2.60;80.50
75170;SHT31;63749;49.186;9.222;2023-01-30T09:09:16;2.62;80.44
75170;SHT31;63749;49.186;9.222;2023-01-30T09:11:41;2.62;80.55
75170;SHT31;63749;49.186;9.222;2023-01-30T09:14:07;2.59;80.80
75170;SHT31;63749;49.186;9.222;2023-01-30T09:16:32;2.55;81.01
75170;SHT31;63749;49.186;9.222;2023-01-30T09:18:58;2.59;81.42
75170;SHT31;63749;49.186;9.222;2023-01-30T09:21:24;2.53;81.89
75170;SHT31;63749;49.186;9.222;2023-01-30T09:23:49;2.42;82.68
75170;SHT31;63749;49.186;9.222;2023-01-30T09:26:15;2.41;82.89
75170;SHT31;63749;49.186;9.222;2023-01-30T09:28:40;2.35;83.01
75170;SHT31;63749;49.186;9.222;2023-01-30T09:31:05;2.38;82.32
75170;SHT31;63749;49.186;9.222;2023-01-30T09:33:31;2.38;82.40
75170;SHT31;63749;49.186;9.222;2023-01-30T09:35:56;2.45;81.56
75170;SHT31;63749;49.186;9.222;2023-01-30T09:38:22;2.48;81.20
75170;SHT31;63749;49.186;9.222;2023-01-30T09:52:30;2.66;80.08
75170;SHT31;63749;49.186;9.222;2023-01-30T09:55:02;2.72;79.82
75170;SHT31;63749;49.186;9.222;2023-01-30T09:57:35;2.76;79.93
75170;SHT31;63749;49.186;9.222;2023-01-30T10:00:11;2.73;79.97
75170;SHT31;63749;49.186;9.222;2023-01-30T10:03:03;2.76;80.07
75170;SHT31;63749;49.186;9.222;2023-01-30T10:06:20;2.80;80.34
75170;SHT31;63749;49.186;9.222;2023-01-30T10:08:48;2.75;81.26
75170;SHT31;63749;49.186;9.222;2023-01-30T10:19:53;2.21;85.07
75170;SHT31;63749;49.186;9.222;2023-01-30T10:25:30;2.07;86.28
75170;SHT31;63749;49.186;9.222;2023-01-30T10:28:05;2.15;85.69
75170;SHT31;63749;49.186;9.222;2023-01-30T10:30:34;2.13;85.56
75170;SHT31;63749;49.186;9.222;2023-01-30T10:33:05;2.21;85.36
75170;SHT31;63749;49.186;9.222;2023-01-30T10:35:37;2.31;84.70
75170;SHT31;63749;49.186;9.222;2023-01-30T10:38:20;2.29;84.57
75170;SHT31;63749;49.186;9.222;2023-01-30T10:41:04;2.32;84.63
75170;SHT31;63749;49.186;9.222;2023-01-30T10:43:47;2.38;84.16
75170;SHT31;63749;49.186;9.222;2023-01-30T10:48:59;2.45;83.88
75170;SHT31;63749;49.186;9.222;2023-01-30T10:51:47;2.48;84.20
75170;SHT31;63749;49.186;9.222;2023-01-30T10:54:18;2.52;83.74
75170;SHT31;63749;49.186;9.222;2023-01-30T10:57:22;2.55;83.58
75170;SHT31;63749;49.186;9.222;2023-01-30T11:00:24;2.56;83.55
75170;SHT31;63749;49.186;9.222;2023-01-30T11:03:07;2.60;83.55
75170;SHT31;63749;49.186;9.222;2023-01-30T11:05:49;2.63;83.97
75170;SHT31;63749;49.186;9.222;2023-01-30T11:08:25;2.68;83.72
75170;SHT31;63749;49.186;9.222;2023-01-30T11:10:51;2.69;83.55
75170;SHT31;63749;49.186;9.222;2023-01-30T11:13:22;2.68;84.22
75170;SHT31;63749;49.186;9.222;2023-01-30T11:15:53;2.73;83.61
75170;SHT31;63749;49.186;9.222;2023-01-30T11:18:21;2.68;83.66
75170;SHT31;63749;49.186;9.222;2023-01-30T11:20:57;2.68;83.89
75170;SHT31;63749;49.186;9.222;2023-01-30T11:23:49;2.71;84.03
75170;SHT31;63749;49.186;9.222;2023-01-30T11:26:34;2.75;83.72
75170;SHT31;63749;49.186;9.222;2023-01-30T11:29:15;2.76;83.80
75170;SHT31;63749;49.186;9.222;2023-01-30T11:31:41;2.73;84.42
75170;SHT31;63749;49.186;9.222;2023-01-30T11:34:18;2.83;83.93
75170;SHT31;63749;49.186;9.222;2023-01-30T11:36:44;2.77;84.37
75170;SHT31;63749;49.186;9.222;2023-01-30T11:42:09;2.87;84.37
75170;SHT31;63749;49.186;9.222;2023-01-30T11:44:34;2.89;84.59
75170;SHT31;63749;49.186;9.222;2023-01-30T11:47:14;2.90;84.64
75170;SHT31;63749;49.186;9.222;2023-01-30T11:49:43;2.89;84.43
75170;SHT31;63749;49.186;9.222;2023-01-30T11:52:11;2.83;84.90
75170;SHT31;63749;49.186;9.222;2023-01-30T11:54:40;2.83;85.18
75170;SHT31;63749;49.186;9.222;2023-01-30T11:57:16;2.86;85.29
75170;SHT31;63749;49.186;9.222;2023-01-30T11:59:54;2.80;85.74
75170;SHT31;63749;49.186;9.222;2023-01-30T12:02:34;2.93;85.54
75170;SHT31;63749;49.186;9.222;2023-01-30T12:05:05;2.95;85.12
75170;SHT31;63749;49.186;9.222;2023-01-30T12:07:33;2.96;85.02
75170;SHT31;63749;49.186;9.222;2023-01-30T12:09:59;3.04;85.03
75170;SHT31;63749;49.186;9.222;2023-01-30T12:12:42;3.14;84.46
75170;SHT31;63749;49.186;9.222;2023-01-30T12:15:30;3.16;83.80
75170;SHT31;63749;49.186;9.222;2023-01-30T12:20:57;3.38;83.41
75170;SHT31;63749;49.186;9.222;2023-01-30T12:23:42;3.52;82.90
75170;SHT31;63749;49.186;9.222;2023-01-30T12:26:16;3.59;82.65
75170;SHT31;63749;49.186;9.222;2023-01-30T12:34:23;3.58;82.26
75170;SHT31;63749;49.186;9.222;2023-01-30T12:45:18;3.68;82.47
75170;SHT31;63749;49.186;9.222;2023-01-30T12:53:43;3.92;81.63
75170;SHT31;63749;49.186;9.222;2023-01-30T12:56:18;3.81;81.52
75170;SHT31;63749;49.186;9.222;2023-01-30T12:59:19;3.78;82.47
75170;SHT31;63749;49.186;9.222;2023-01-30T13:07:16;3.89;81.99
75170;SHT31;63749;49.186;9.222;2023-01-30T13:10:05;4.06;81.51
75170;SHT31;63749;49.186;9.222;2023-01-30T13:18:01;4.37;80.20
75170;SHT31;63749;49.186;9.222;2023-01-30T13:20:51;4.46;80.29
75170;SHT31;63749;49.186;9.222;2023-01-30T13:23:34;4.37;80.19
75170;SHT31;63749;49.186;9.222;2023-01-30T13:26:13;4.37;80.14
75170;SHT31;63749;49.186;9.222;2023-01-30T13:28:53;4.47;79.81
75170;SHT31;63749;49.186;9.222;2023-01-30T13:31:22;4.57;79.72
75170;SHT31;63749;49.186;9.222;2023-01-30T13:33:51;4.24;80.04
75170;SHT31;63749;49.186;9.222;2023-01-30T13:36:25;3.93;81.13
75170;SHT31;63749;49.186;9.222;2023-01-30T13:41:42;3.78;82.31
75170;SHT31;63749;49.186;9.222;2023-01-30T13:44:30;3.64;82.59
75170;SHT31;63749;49.186;9.222;2023-01-30T13:47:07;3.68;82.48
75170;SHT31;63749;49.186;9.222;2023-01-30T13:49:45;3.65;82.53
75170;SHT31;63749;49.186;9.222;2023-01-30T13:52:26;3.76;82.41
75170;SHT31;63749;49.186;9.222;2023-01-30T13:55:10;3.87;82.27
75170;SHT31;63749;49.186;9.222;2023-01-30T13:57:54;3.72;82.62
75170;SHT31;63749;49.186;9.222;2023-01-30T14:08:23;3.38;83.93
75170;SHT31;63749;49.186;9.222;2023-01-30T14:10:50;3.34;83.95
75170;SHT31;63749;49.186;9.222;2023-01-30T14:13:16;3.27;84.30
75170;SHT31;63749;49.186;9.222;2023-01-30T14:16:02;3.30;84.53
75170;SHT31;63749;49.186;9.222;2023-01-30T14:18:31;3.32;84.48
75170;SHT31;63749;49.186;9.222;2023-01-30T14:23:37;3.26;84.87
75170;SHT31;63749;49.186;9.222;2023-01-30T14:26:02;3.30;85.00
75170;SHT31;63749;49.186;9.222;2023-01-30T14:31:00;3.59;83.70
75170;SHT31;63749;49.186;9.222;2023-01-30T14:38:22;3.86;82.64
75170;SHT31;63749;49.186;9.222;2023-01-30T14:41:14;4.02;82.10
75170;SHT31;63749;49.186;9.222;2023-01-30T14:51:33;4.46;81.03
75170;SHT31;63749;49.186;9.222;2023-01-30T14:54:06;4.20;81.37
75170;SHT31;63749;49.186;9.222;2023-01-30T14:59:02;3.93;82.62
75170;SHT31;63749;49.186;9.222;2023-01-30T15:04:29;3.75;83.73
75170;SHT31;63749;49.186;9.222;2023-01-30T15:06:57;3.76;83.85
75170;SHT31;63749;49.186;9.222;2023-01-30T15:09:27;3.76;83.76
75170;SHT31;63749;49.186;9.222;2023-01-30T15:12:16;3.76;83.79
75170;SHT31;63749;49.186;9.222;2023-01-30T15:15:42;3.79;83.86
75170;SHT31;63749;49.186;9.222;2023-01-30T15:21:44;3.69;84.25
75170;SHT31;63749;49.186;9.222;2023-01-30T15:32:44;3.64;84.75
75170;SHT31;63749;49.186;9.222;2023-01-30T15:37:53;3.66;84.86
75170;SHT31;63749;49.186;9.222;2023-01-30T15:40:21;3.68;84.84
75170;SHT31;63749;49.186;9.222;2023-01-30T15:45:28;3.71;84.83
75170;SHT31;63749;49.186;9.222;2023-01-30T15:48:31;3.64;84.95
75170;SHT31;63749;49.186;9.222;2023-01-30T15:51:01;3.68;84.95
75170;SHT31;63749;49.186;9.222;2023-01-30T15:53:30;3.66;85.02
75170;SHT31;63749;49.186;9.222;2023-01-30T15:55:59;3.65;85.01
75170;SHT31;63749;49.186;9.222;2023-01-30T15:58:25;3.54;85.50
75170;SHT31;63749;49.186;9.222;2023-01-30T16:00:53;3.57;85.37
75170;SHT31;63749;49.186;9.222;2023-01-30T16:03:26;3.58;85.29
75170;SHT31;63749;49.186;9.222;2023-01-30T16:05:55;3.58;85.38
75170;SHT31;63749;49.186;9.222;2023-01-30T16:08:25;3.55;85.53
75170;SHT31;63749;49.186;9.222;2023-01-30T16:10:51;3.61;85.22
75170;SHT31;63749;49.186;9.222;2023-01-30T16:13:20;3.65;84.99
75170;SHT31;63749;49.186;9.222;2023-01-30T16:18:35;3.66;85.03
75170;SHT31;63749;49.186;9.222;2023-01-30T16:21:08;3.62;85.32
75170;SHT31;63749;49.186;9.222;2023-01-30T16:23:40;3.64;85.13
75170;SHT31;63749;49.186;9.222;2023-01-30T16:26:12;3.66;85.15
75170;SHT31;63749;49.186;9.222;2023-01-30T16:28:38;3.71;85.17
75170;SHT31;63749;49.186;9.222;2023-01-30T16:31:05;3.66;85.43
75170;SHT31;63749;49.186;9.222;2023-01-30T16:33:32;3.76;85.02
75170;SHT31;63749;49.186;9.222;2023-01-30T16:36:14;3.74;85.04
75170;SHT31;63749;49.186;9.222;2023-01-30T16:38:52;3.72;85.16
75170;SHT31;63749;49.186;9.222;2023-01-30T16:44:27;3.72;85.51
75170;SHT31;63749;49.186;9.222;2023-01-30T16:47:03;3.64;86.06
75170;SHT31;63749;49.186;9.222;2023-01-30T16:52:33;3.58;87.13
75170;SHT31;63749;49.186;9.222;2023-01-30T16:55:03;3.50;88.36
75170;SHT31;63749;49.186;9.222;2023-01-30T16:57:33;3.38;89.35
75170;SHT31;63749;49.186;9.222;2023-01-30T17:02:51;3.21;89.61
75170;SHT31;63749;49.186;9.222;2023-01-30T17:05:26;3.27;89.24
75170;SHT31;63749;49.186;9.222;2023-01-30T17:07:53;3.24;89.26
75170;SHT31;63749;49.186;9.222;2023-01-30T17:13:03;3.26;89.83
75170;SHT31;63749;49.186;9.222;2023-01-30T17:15:33;3.30;89.09
75170;SHT31;63749;49.186;9.222;2023-01-30T17:17:59;3.24;89.06
75170;SHT31;63749;49.186;9.222;2023-01-30T17:20:35;3.16;89.23
75170;SHT31;63749;49.186;9.222;2023-01-30T17:23:05;3.14;89.36
75170;SHT31;63749;49.186;9.222;2023-01-30T17:25:35;3.16;89.17
75170;SHT31;63749;49.186;9.222;2023-01-30T17:28:04;3.07;89.32
75170;SHT31;63749;49.186;9.222;2023-01-30T17:30:30;3.06;89.20
75170;SHT31;63749;49.186;9.222;2023-01-30T17:32:56;3.01;89.31
75170;SHT31;63749;49.186;9.222;2023-01-30T17:35:21;2.97;89.43
75170;SHT31;63749;49.186;9.222;2023-01-30T17:37:47;2.92;89.52
75170;SHT31;63749;49.186;9.222;2023-01-30T17:40:31;2.90;89.64
75170;SHT31;63749;49.186;9.222;2023-01-30T17:42:57;2.80;90.05
75170;SHT31;63749;49.186;9.222;2023-01-30T17:45:23;2.86;89.93
75170;SHT31;63749;49.186;9.222;2023-01-30T17:47:48;2.90;89.88
75170;SHT31;63749;49.186;9.222;2023-01-30T17:50:13;2.96;89.74
75170;SHT31;63749;49.186;9.222;2023-01-30T17:52:39;2.99;89.81
75170;SHT31;63749;49.186;9.222;2023-01-30T17:55:05;3.03;89.60
75170;SHT31;63749;49.186;9.222;2023-01-30T17:57:31;2.99;89.90
75170;SHT31;63749;49.186;9.222;2023-01-30T17:59:56;3.11;89.34
75170;SHT31;63749;49.186;9.222;2023-01-30T18:02:22;3.23;88.99
75170;SHT31;63749;49.186;9.222;2023-01-30T18:04:47;3.23;88.89
75170;SHT31;63749;49.186;9.222;2023-01-30T18:07:13;3.28;88.61
75170;SHT31;63749;49.186;9.222;2023-01-30T18:09:41;3.34;88.68
75170;SHT31;63749;49.186;9.222;2023-01-30T18:12:07;3.39;88.08
75170;SHT31;63749;49.186;9.222;2023-01-30T18:14:32;3.37;88.25
75170;SHT31;63749;49.186;9.222;2023-01-30T18:16:58;3.44;88.87
75170;SHT31;63749;49.186;9.222;2023-01-30T18:19:26;3.79;89.83
75170;SHT31;63749;49.186;9.222;2023-01-30T18:21:52;3.90;87.95
75170;SHT31;63749;49.186;9.222;2023-01-30T18:24:17;3.92;87.31
75170;SHT31;63749;49.186;9.222;2023-01-30T18:26:43;4.02;87.03
75170;SHT31;63749;49.186;9.222;2023-01-30T18:29:10;4.03;86.55
75170;SHT31;63749;49.186;9.222;2023-01-30T18:31:37;4.13;86.57
75170;SHT31;63749;49.186;9.222;2023-01-30T18:34:02;4.16;86.36
75170;SHT31;63749;49.186;9.222;2023-01-30T18:36:28;4.14;85.76
75170;SHT31;63749;49.186;9.222;2023-01-30T18:38:53;4.11;85.33
75170;SHT31;63749;49.186;9.222;2023-01-30T18:41:20;3.86;86.12
75170;SHT31;63749;49.186;9.222;2023-01-30T18:43:47;3.78;86.74